createdAt,value
2022-09-24T00:01:41.955Z,2.90
2022-09-24T00:04:11.850Z,3.23
2022-09-24T00:06:42.009Z,3.00
2022-09-24T00:09:10.303Z,2.97
2022-09-24T00:11:38.906Z,2.63
2022-09-24T00:14:08.769Z,2.80
2022-09-24T00:16:36.712Z,2.83
2022-09-24T00:19:05.186Z,3.07
2022-09-24T00:21:34.735Z,3.00
2022-09-24T00:24:03.596Z,2.43
2022-09-24T00:26:48.711Z,3.03
2022-09-24T00:29:19.765Z,2.70
2022-09-24T00:31:47.907Z,3.10
2022-09-24T00:34:15.898Z,3.20
2022-09-24T00:36:44.899Z,3.00
2022-09-24T00:39:12.508Z,3.00
2022-09-24T00:41:47.277Z,2.43
2022-09-24T00:44:46.615Z,2.50
2022-09-24T00:47:15.712Z,2.63
2022-09-24T00:49:43.621Z,3.10
2022-09-24T00:52:11.285Z,3.00
2022-09-24T00:54:39.494Z,2.93
2022-09-24T00:57:07.353Z,2.50
2022-09-24T00:59:36.709Z,2.80
2022-09-24T01:02:06.575Z,3.03
2022-09-24T01:04:34.235Z,2.70
2022-09-24T01:07:02.343Z,2.80
2022-09-24T01:09:30.129Z,2.67
2022-09-24T01:12:04.229Z,3.13
2022-09-24T01:14:41.259Z,2.63
2022-09-24T01:17:19.020Z,2.57
2022-09-24T01:20:12.132Z,3.00
2022-09-24T01:22:50.693Z,2.10
2022-09-24T01:25:21.202Z,2.83
2022-09-24T01:28:04.783Z,2.60
2022-09-24T01:30:42.349Z,2.63
2022-09-24T01:33:13.690Z,2.77
2022-09-24T01:35:44.010Z,2.53
2022-09-24T01:38:15.479Z,3.20
2022-09-24T01:40:43.573Z,2.73
2022-09-24T01:43:13.012Z,2.47
2022-09-24T01:45:42.731Z,2.67
2022-09-24T01:48:11.252Z,2.97
2022-09-24T01:50:41.917Z,3.10
2022-09-24T01:53:12.519Z,2.60
2022-09-24T01:55:44.900Z,2.70
2022-09-24T01:58:16.819Z,2.60
2022-09-24T02:00:48.862Z,2.43
2022-09-24T02:03:18.453Z,2.40
2022-09-24T02:05:50.443Z,2.33
2022-09-24T02:08:20.303Z,2.47
2022-09-24T02:10:54.876Z,2.47
2022-09-24T02:13:24.625Z,2.87
2022-09-24T02:15:56.579Z,2.93
2022-09-24T02:18:28.660Z,3.00
2022-09-24T02:20:56.535Z,2.70
2022-09-24T02:23:24.429Z,2.87
2022-09-24T02:25:55.262Z,3.03
2022-09-24T02:28:22.977Z,3.70
2022-09-24T02:30:55.027Z,3.20
2022-09-24T02:33:41.452Z,3.30
2022-09-24T02:36:09.046Z,3.23
2022-09-24T02:38:37.096Z,3.67
2022-09-24T02:41:08.117Z,3.60
2022-09-24T02:43:36.388Z,3.10
2022-09-24T02:46:05.537Z,3.30
2022-09-24T02:48:33.126Z,3.30
2022-09-24T02:51:01.270Z,3.33
2022-09-24T02:53:28.802Z,3.30
2022-09-24T02:55:56.450Z,3.07
2022-09-24T02:58:25.218Z,3.07
2022-09-24T03:00:53.686Z,3.10
2022-09-24T03:03:22.975Z,3.00
2022-09-24T03:05:53.173Z,2.70
2022-09-24T03:08:20.983Z,2.60
2022-09-24T03:10:49.462Z,3.10
2022-09-24T03:13:17.997Z,3.23
2022-09-24T03:15:46.329Z,3.33
2022-09-24T03:18:14.668Z,3.00
2022-09-24T03:20:43.663Z,3.03
2022-09-24T03:23:11.253Z,3.17
2022-09-24T03:25:38.856Z,2.77
2022-09-24T03:28:06.467Z,3.23
2022-09-24T03:30:51.581Z,3.03
2022-09-24T03:33:19.146Z,2.70
2022-09-24T03:35:48.058Z,2.63
2022-09-24T03:38:15.689Z,2.90
2022-09-24T03:40:43.327Z,2.83
2022-09-24T03:43:10.952Z,3.27
2022-09-24T03:45:38.683Z,3.13
2022-09-24T03:48:06.543Z,3.47
2022-09-24T03:50:37.106Z,2.70
2022-09-24T03:53:06.176Z,2.80
2022-09-24T03:55:33.801Z,2.80
2022-09-24T03:58:01.457Z,2.90
2022-09-24T04:00:29.106Z,2.77
2022-09-24T04:02:56.700Z,2.47
2022-09-24T04:05:27.171Z,2.70
2022-09-24T04:07:54.751Z,3.30
2022-09-24T04:10:25.516Z,3.00
2022-09-24T04:12:53.455Z,3.20
2022-09-24T04:15:21.901Z,3.00
2022-09-24T04:17:52.062Z,3.07
2022-09-24T04:20:22.753Z,2.90
2022-09-24T04:22:50.766Z,3.30
2022-09-24T04:25:18.809Z,2.90
2022-09-24T04:27:47.935Z,3.50
2022-09-24T04:30:16.140Z,3.30
2022-09-24T04:32:43.828Z,3.30
2022-09-24T04:35:11.618Z,2.80
2022-09-24T04:37:39.241Z,3.67
2022-09-24T04:40:12.535Z,3.60
2022-09-24T04:42:40.625Z,3.30
2022-09-24T04:45:11.659Z,3.60
2022-09-24T04:47:40.779Z,3.50
2022-09-24T04:50:11.307Z,3.10
2022-09-24T04:52:38.984Z,3.00
2022-09-24T04:55:07.880Z,3.33
2022-09-24T04:57:36.334Z,3.20
2022-09-24T05:00:05.898Z,3.23
2022-09-24T05:02:35.060Z,3.40
2022-09-24T05:05:03.241Z,3.43
2022-09-24T05:07:30.796Z,3.37
2022-09-24T05:09:58.352Z,3.33
2022-09-24T05:12:25.906Z,2.90
2022-09-24T05:14:53.478Z,3.33
2022-09-24T05:17:21.463Z,3.53
2022-09-24T05:19:50.430Z,3.80
2022-09-24T05:22:18.105Z,3.43
2022-09-24T05:24:45.773Z,3.90
2022-09-24T05:27:12.381Z,3.33
2022-09-24T05:29:40.747Z,3.43
2022-09-24T05:32:09.701Z,4.03
2022-09-24T05:34:37.391Z,4.00
2022-09-24T05:37:06.741Z,3.50
2022-09-24T05:39:34.532Z,4.10
2022-09-24T05:42:04.141Z,4.30
2022-09-24T05:44:31.815Z,3.83
2022-09-24T05:46:59.745Z,4.37
2022-09-24T05:49:27.460Z,4.90
2022-09-24T05:51:55.068Z,4.53
2022-09-24T05:54:24.125Z,4.87
2022-09-24T05:56:51.647Z,3.80
2022-09-24T05:59:19.212Z,4.47
2022-09-24T06:01:46.789Z,3.90
2022-09-24T06:04:14.679Z,3.50
2022-09-24T06:06:43.415Z,4.03
2022-09-24T06:09:12.929Z,4.63
2022-09-24T06:11:42.514Z,3.70
2022-09-24T06:14:11.160Z,3.90
2022-09-24T06:16:38.763Z,3.90
2022-09-24T06:19:06.427Z,3.37
2022-09-24T06:21:34.422Z,3.33
2022-09-24T06:24:03.191Z,3.77
2022-09-24T06:26:33.933Z,3.90
2022-09-24T06:29:05.236Z,4.23
2022-09-24T06:31:34.911Z,3.57
2022-09-24T06:34:04.165Z,3.90
2022-09-24T06:36:32.912Z,4.40
2022-09-24T06:39:00.489Z,3.93
2022-09-24T06:41:28.073Z,4.37
2022-09-24T06:43:56.391Z,4.50
2022-09-24T06:46:26.396Z,4.80
2022-09-24T06:48:55.629Z,4.53
2022-09-24T06:51:23.229Z,4.53
2022-09-24T06:53:52.000Z,4.17
2022-09-24T06:56:19.536Z,4.73
2022-09-24T06:58:47.427Z,3.93
2022-09-24T07:01:15.148Z,5.20
2022-09-24T07:03:44.126Z,4.63
2022-09-24T07:06:11.679Z,5.07
2022-09-24T07:08:39.322Z,4.40
2022-09-24T07:11:07.619Z,4.50
2022-09-24T07:13:35.149Z,3.80
2022-09-24T07:16:03.261Z,3.77
2022-09-24T07:18:30.907Z,4.03
2022-09-24T07:20:59.822Z,3.50
2022-09-24T07:23:27.785Z,3.90
2022-09-24T07:25:57.330Z,4.10
2022-09-24T07:28:24.862Z,3.37
2022-09-24T07:30:58.207Z,3.70
2022-09-24T07:33:25.779Z,3.43
2022-09-24T07:35:53.440Z,3.73
2022-09-24T07:38:22.518Z,4.57
2022-09-24T07:40:50.262Z,4.87
2022-09-24T07:43:17.908Z,4.70
2022-09-24T07:45:46.355Z,4.60
2022-09-24T07:48:15.617Z,4.77
2022-09-24T07:50:43.448Z,4.50
2022-09-24T07:53:11.910Z,4.30
2022-09-24T07:55:41.616Z,3.90
2022-09-24T07:58:10.105Z,4.50
2022-09-24T08:00:37.681Z,3.87
2022-09-24T08:03:05.555Z,3.70
2022-09-24T08:05:33.863Z,3.37
2022-09-24T08:08:01.668Z,3.20
2022-09-24T08:10:29.428Z,2.90
2022-09-24T08:13:02.306Z,3.33
2022-09-24T08:15:29.866Z,3.27
2022-09-24T08:18:01.870Z,3.20
2022-09-24T08:20:29.401Z,3.53
2022-09-24T08:23:02.081Z,4.43
2022-09-24T08:25:29.760Z,4.43
2022-09-24T08:28:02.453Z,4.47
2022-09-24T08:30:30.870Z,3.80
2022-09-24T08:32:58.669Z,4.17
2022-09-24T08:35:26.280Z,4.00
2022-09-24T08:37:54.594Z,4.40
2022-09-24T08:40:25.100Z,3.90
2022-09-24T08:42:56.726Z,5.23
2022-09-24T08:45:43.347Z,4.47
2022-09-24T08:48:14.733Z,5.43
2022-09-24T08:50:47.931Z,6.07
2022-09-24T08:53:19.725Z,5.80
2022-09-24T08:55:48.454Z,5.43
2022-09-24T08:58:29.821Z,6.00
2022-09-24T09:01:13.850Z,4.73
2022-09-24T09:03:45.702Z,5.20
2022-09-24T09:06:25.139Z,19.93
2022-09-24T09:09:11.833Z,6.83
2022-09-24T09:11:41.220Z,7.43
2022-09-24T09:14:12.495Z,7.50
2022-09-24T09:16:47.730Z,5.40
2022-09-24T09:19:17.105Z,5.03
2022-09-24T09:21:46.171Z,5.13
2022-09-24T09:24:18.591Z,5.07
2022-09-24T09:26:49.600Z,5.83
2022-09-24T09:29:17.603Z,5.13
2022-09-24T09:31:56.535Z,5.00
2022-09-24T09:34:38.375Z,5.07
2022-09-24T09:37:13.079Z,5.10
2022-09-24T09:39:46.561Z,4.97
2022-09-24T09:42:24.469Z,5.13
2022-09-24T09:44:52.715Z,4.57
2022-09-24T09:47:27.573Z,4.30
2022-09-24T09:49:57.840Z,4.30
2022-09-24T09:52:28.301Z,4.67
2022-09-24T09:54:56.017Z,4.87
2022-09-24T09:57:25.318Z,4.60
2022-09-24T09:59:54.630Z,4.77
2022-09-24T10:02:28.849Z,4.73
2022-09-24T10:04:57.500Z,4.87
2022-09-24T10:07:25.388Z,5.43
2022-09-24T10:10:02.168Z,4.67
2022-09-24T10:12:30.414Z,4.73
2022-09-24T10:15:00.416Z,4.57
2022-09-24T10:17:32.884Z,4.53
2022-09-24T10:20:02.759Z,4.90
2022-09-24T10:22:30.968Z,5.47
2022-09-24T10:25:00.806Z,5.20
2022-09-24T10:27:34.271Z,4.90
2022-09-24T10:30:20.283Z,5.07
2022-09-24T10:32:57.328Z,5.17
2022-09-24T10:35:28.121Z,5.80
2022-09-24T10:37:56.832Z,6.00
2022-09-24T10:40:28.274Z,5.60
2022-09-24T10:42:57.201Z,6.10
2022-09-24T10:45:32.953Z,6.20
2022-09-24T10:48:08.700Z,6.07
2022-09-24T10:50:44.084Z,6.43
2022-09-24T10:53:15.266Z,5.80
2022-09-24T10:55:49.767Z,6.23
2022-09-24T10:58:40.336Z,6.30
2022-09-24T11:01:15.783Z,6.80
2022-09-24T11:04:18.299Z,6.87
2022-09-24T11:06:57.116Z,6.67
2022-09-24T11:09:31.445Z,7.10
2022-09-24T11:12:05.363Z,7.60
2022-09-24T11:14:46.487Z,7.80
2022-09-24T11:17:30.026Z,7.20
2022-09-24T11:20:12.711Z,6.10
2022-09-24T11:22:50.686Z,5.63
2022-09-24T11:25:32.200Z,5.80
2022-09-24T11:28:14.230Z,5.37
2022-09-24T11:30:47.839Z,4.97
2022-09-24T11:33:26.822Z,5.07
2022-09-24T11:36:05.448Z,5.50
2022-09-24T11:38:45.519Z,5.10
2022-09-24T11:41:24.430Z,5.00
2022-09-24T11:44:11.354Z,4.93
2022-09-24T11:46:49.600Z,4.70
2022-09-24T11:49:29.686Z,4.20
2022-09-24T11:52:03.303Z,4.77
2022-09-24T11:54:34.759Z,4.87
2022-09-24T11:57:07.725Z,5.37
2022-09-24T11:59:39.896Z,5.23
2022-09-24T12:02:15.510Z,4.87
2022-09-24T12:04:52.068Z,4.53
2022-09-24T12:07:26.165Z,4.53
2022-09-24T12:09:59.390Z,4.73
2022-09-24T12:12:30.252Z,4.53
2022-09-24T12:15:02.783Z,5.10
2022-09-24T12:17:36.174Z,5.23
2022-09-24T12:20:08.236Z,5.03
2022-09-24T12:22:39.303Z,5.23
2022-09-24T12:25:12.511Z,4.90
2022-09-24T12:27:40.875Z,5.00
2022-09-24T12:30:38.956Z,5.13
2022-09-24T12:33:11.272Z,5.80
2022-09-24T12:35:48.339Z,5.63
2022-09-24T12:38:20.849Z,5.47
2022-09-24T12:41:24.011Z,5.60
2022-09-24T12:43:56.679Z,5.20
2022-09-24T12:46:27.879Z,5.80
2022-09-24T12:48:56.062Z,5.30
2022-09-24T12:51:24.474Z,5.47
2022-09-24T12:54:06.228Z,6.10
2022-09-24T12:56:34.923Z,5.60
2022-09-24T12:59:05.551Z,4.83
2022-09-24T13:01:35.754Z,4.50
2022-09-24T13:04:29.248Z,4.93
2022-09-24T13:06:57.355Z,4.80
2022-09-24T13:09:34.334Z,4.83
2022-09-24T13:12:20.018Z,4.97
2022-09-24T13:14:53.550Z,5.27
2022-09-24T13:17:21.708Z,5.90
2022-09-24T13:19:51.675Z,5.43
2022-09-24T13:22:23.446Z,6.57
2022-09-24T13:24:54.525Z,5.80
2022-09-24T13:27:25.460Z,6.10
2022-09-24T13:30:04.801Z,6.13
2022-09-24T13:32:35.560Z,6.67
2022-09-24T13:35:07.934Z,5.87
2022-09-24T13:37:37.718Z,6.07
2022-09-24T13:40:09.273Z,5.27
2022-09-24T13:42:41.024Z,6.43
2022-09-24T13:45:13.428Z,5.70
2022-09-24T13:47:45.340Z,5.33
2022-09-24T13:50:18.030Z,5.17
2022-09-24T13:52:47.401Z,5.10
2022-09-24T13:55:22.083Z,4.87
2022-09-24T13:57:50.582Z,5.43
2022-09-24T14:00:20.892Z,4.87
2022-09-24T14:02:58.732Z,5.67
2022-09-24T14:05:29.207Z,5.67
2022-09-24T14:08:00.029Z,5.00
2022-09-24T14:10:29.786Z,11.73
2022-09-24T14:13:10.541Z,8.00
2022-09-24T14:15:38.520Z,5.20
2022-09-24T14:18:10.673Z,4.57
2022-09-24T14:20:40.694Z,4.50
2022-09-24T14:23:11.084Z,4.57
2022-09-24T14:25:40.471Z,4.90
2022-09-24T14:28:08.353Z,5.10
2022-09-24T14:30:37.885Z,4.73
2022-09-24T14:33:08.667Z,5.07
2022-09-24T14:35:38.378Z,5.33
2022-09-24T14:38:09.511Z,5.10
2022-09-24T14:40:43.310Z,4.43
2022-09-24T14:43:17.901Z,5.27
2022-09-24T14:45:46.988Z,4.90
2022-09-24T14:48:24.990Z,5.10
2022-09-24T14:50:52.856Z,4.60
2022-09-24T14:53:23.702Z,4.27
2022-09-24T14:55:52.811Z,4.53
2022-09-24T14:58:24.997Z,4.30
2022-09-24T15:00:56.202Z,4.70
2022-09-24T15:03:28.483Z,4.57
2022-09-24T15:06:07.267Z,4.67
2022-09-24T15:08:35.620Z,5.53
2022-09-24T15:11:06.089Z,4.47
2022-09-24T15:13:35.586Z,4.93
2022-09-24T15:16:08.941Z,3.77
2022-09-24T15:18:36.797Z,4.47
2022-09-24T15:21:08.279Z,4.87
2022-09-24T15:23:36.656Z,4.30
2022-09-24T15:26:06.238Z,3.80
2022-09-24T15:28:34.135Z,3.60
2022-09-24T15:31:01.960Z,3.70
2022-09-24T15:33:29.809Z,3.97
2022-09-24T15:35:57.717Z,3.83
2022-09-24T15:38:25.722Z,3.67
2022-09-24T15:40:53.963Z,4.30
2022-09-24T15:43:24.971Z,3.97
2022-09-24T15:45:53.040Z,3.37
2022-09-24T15:48:20.932Z,3.93
2022-09-24T15:50:50.540Z,3.67
2022-09-24T15:53:21.778Z,3.70
2022-09-24T15:55:53.205Z,3.87
2022-09-24T15:58:21.645Z,4.50
2022-09-24T16:00:51.482Z,3.70
2022-09-24T16:03:21.750Z,3.83
2022-09-24T16:05:49.891Z,4.00
2022-09-24T16:08:17.912Z,4.10
2022-09-24T16:10:47.122Z,4.67
2022-09-24T16:13:16.021Z,4.10
2022-09-24T16:15:44.243Z,4.10
2022-09-24T16:18:15.785Z,4.33
2022-09-24T16:20:45.373Z,3.83
2022-09-24T16:23:15.589Z,3.83
2022-09-24T16:25:43.817Z,3.63
2022-09-24T16:28:11.683Z,4.40
2022-09-24T16:30:39.541Z,3.87
2022-09-24T16:33:07.302Z,4.17
2022-09-24T16:35:36.196Z,2.80
2022-09-24T16:38:03.904Z,2.53
2022-09-24T16:40:32.980Z,2.43
2022-09-24T16:43:00.615Z,2.30
2022-09-24T16:45:28.532Z,2.60
2022-09-24T16:47:56.294Z,2.10
2022-09-24T16:50:24.550Z,1.70
2022-09-24T16:52:55.442Z,1.60
2022-09-24T16:55:25.223Z,1.77
2022-09-24T16:57:53.183Z,1.83
2022-09-24T17:00:21.240Z,1.50
2022-09-24T17:02:49.263Z,1.70
2022-09-24T17:05:17.335Z,2.10
2022-09-24T17:07:45.152Z,1.90
2022-09-24T17:10:13.314Z,1.90
2022-09-24T17:12:41.939Z,1.87
2022-09-24T17:15:10.270Z,1.70
2022-09-24T17:17:49.161Z,2.30
2022-09-24T17:20:18.008Z,2.70
2022-09-24T17:22:47.430Z,2.50
2022-09-24T17:25:17.381Z,2.37
2022-09-24T17:27:45.226Z,2.50
2022-09-24T17:30:14.350Z,3.50
2022-09-24T17:32:43.190Z,4.53
2022-09-24T17:35:15.046Z,8.03
2022-09-24T17:37:43.004Z,9.53
2022-09-24T17:40:11.574Z,9.73
2022-09-24T17:42:45.878Z,10.10
2022-09-24T17:45:13.768Z,7.73
2022-09-24T17:48:10.608Z,4.07
2022-09-24T17:51:16.133Z,2.23
2022-09-24T17:54:35.770Z,2.53
2022-09-24T17:57:57.564Z,2.13
2022-09-24T18:01:25.377Z,2.00
2022-09-24T18:03:54.923Z,2.43
2022-09-24T18:06:25.566Z,1.93
2022-09-24T18:08:59.053Z,2.60
2022-09-24T18:11:29.684Z,2.00
2022-09-24T18:13:59.622Z,2.70
2022-09-24T18:16:29.854Z,2.80
2022-09-24T18:18:57.895Z,2.77
2022-09-24T18:21:25.619Z,2.73
2022-09-24T18:23:53.538Z,3.10
2022-09-24T18:26:22.667Z,2.80
2022-09-24T18:28:51.770Z,2.90
2022-09-24T18:31:21.058Z,3.03
2022-09-24T18:33:51.892Z,2.90
2022-09-24T18:36:21.991Z,3.27
2022-09-24T18:38:49.779Z,2.83
2022-09-24T18:41:20.310Z,2.70
2022-09-24T18:43:47.993Z,2.93
2022-09-24T18:46:17.218Z,2.87
2022-09-24T18:48:46.900Z,3.50
2022-09-24T18:51:18.701Z,3.80
2022-09-24T18:53:46.531Z,3.40
2022-09-24T18:56:14.079Z,2.73
2022-09-24T18:58:42.160Z,3.40
2022-09-24T19:01:10.270Z,3.17
2022-09-24T19:03:39.578Z,3.30
2022-09-24T19:06:08.196Z,3.50
2022-09-24T19:08:37.036Z,3.40
2022-09-24T19:11:07.608Z,2.87
2022-09-24T19:13:35.860Z,2.97
2022-09-24T19:16:07.673Z,3.10
2022-09-24T19:18:35.884Z,3.20
2022-09-24T19:21:06.375Z,3.80
2022-09-24T19:23:38.223Z,3.93
2022-09-24T19:26:06.197Z,8.23
2022-09-24T19:28:34.533Z,6.43
2022-09-24T19:31:02.476Z,4.77
2022-09-24T19:33:30.277Z,4.67
2022-09-24T19:36:01.734Z,3.93
2022-09-24T19:38:31.579Z,4.17
2022-09-24T19:41:03.042Z,4.77
2022-09-24T19:43:33.545Z,8.30
2022-09-24T19:46:03.437Z,8.77
2022-09-24T19:48:32.468Z,6.43
2022-09-24T19:51:00.719Z,6.90
2022-09-24T19:53:29.225Z,11.30
2022-09-24T19:55:57.263Z,5.10
2022-09-24T19:58:26.567Z,11.30
2022-09-24T20:00:54.721Z,8.30
2022-09-24T20:03:22.444Z,5.73
2022-09-24T20:05:49.988Z,4.00
2022-09-24T20:08:17.533Z,3.83
2022-09-24T20:10:45.915Z,4.37
2022-09-24T20:13:13.747Z,3.80
2022-09-24T20:15:42.979Z,4.27
2022-09-24T20:18:12.620Z,4.97
2022-09-24T20:20:40.770Z,4.87
2022-09-24T20:23:10.731Z,5.97
2022-09-24T20:25:56.131Z,6.83
2022-09-24T20:28:23.703Z,6.77
2022-09-24T20:30:53.859Z,7.27
2022-09-24T20:33:21.444Z,6.63
2022-09-24T20:35:50.233Z,7.00
2022-09-24T20:38:18.668Z,6.70
2022-09-24T20:40:46.275Z,6.20
2022-09-24T20:43:13.858Z,5.37
2022-09-24T20:45:42.160Z,6.07
2022-09-24T20:48:11.319Z,5.80
2022-09-24T20:50:38.979Z,5.40
2022-09-24T20:53:06.514Z,4.93
2022-09-24T20:55:34.098Z,4.90
2022-09-24T20:58:01.646Z,5.10
2022-09-24T21:00:35.115Z,4.90
2022-09-24T21:03:15.413Z,5.30
2022-09-24T21:05:53.428Z,4.53
2022-09-24T21:08:20.964Z,4.40
2022-09-24T21:10:48.502Z,4.33
2022-09-24T21:13:16.028Z,4.03
2022-09-24T21:15:43.637Z,4.63
2022-09-24T21:18:22.820Z,4.60
2022-09-24T21:20:53.120Z,4.83
2022-09-24T21:23:21.478Z,5.73
2022-09-24T21:25:54.376Z,6.03
2022-09-24T21:28:22.548Z,5.50
2022-09-24T21:30:57.774Z,5.10
2022-09-24T21:33:25.344Z,5.93
2022-09-24T21:35:59.000Z,6.40
2022-09-24T21:38:26.592Z,5.47
2022-09-24T21:40:54.573Z,7.10
2022-09-24T21:43:23.581Z,7.13
2022-09-24T21:45:52.361Z,7.43
2022-09-24T21:48:20.010Z,6.97
2022-09-24T21:50:47.790Z,6.70
2022-09-24T21:53:16.668Z,6.83
2022-09-24T21:55:48.033Z,6.70
2022-09-24T21:58:15.697Z,6.83
2022-09-24T22:00:43.832Z,6.50
2022-09-24T22:03:13.188Z,6.60
2022-09-24T22:05:42.854Z,6.77
2022-09-24T22:08:12.918Z,6.30
2022-09-24T22:10:44.001Z,6.07
2022-09-24T22:13:14.025Z,5.43
2022-09-24T22:15:43.659Z,5.37
2022-09-24T22:18:11.680Z,6.97
2022-09-24T22:20:42.618Z,6.57
2022-09-24T22:23:10.325Z,6.23
2022-09-24T22:25:38.031Z,6.63
2022-09-24T22:28:07.097Z,6.43
2022-09-24T22:30:34.662Z,7.30
2022-09-24T22:33:02.245Z,6.80
2022-09-24T22:35:47.483Z,6.40
2022-09-24T22:38:15.676Z,6.77
2022-09-24T22:40:43.572Z,6.83
2022-09-24T22:43:12.475Z,6.97
2022-09-24T22:45:40.261Z,7.43
2022-09-24T22:48:07.904Z,7.17
2022-09-24T22:50:35.436Z,6.87
2022-09-24T22:53:02.999Z,7.33
2022-09-24T22:55:30.633Z,7.13
2022-09-24T22:57:58.217Z,7.60
2022-09-24T23:00:27.101Z,7.07
2022-09-24T23:02:54.657Z,7.03
2022-09-24T23:05:22.272Z,6.33
2022-09-24T23:07:49.827Z,6.20
2022-09-24T23:10:17.570Z,6.43
2022-09-24T23:12:45.138Z,6.90
2022-09-24T23:15:12.675Z,6.57
2022-09-24T23:17:41.554Z,6.57
2022-09-24T23:20:10.247Z,6.87
2022-09-24T23:22:37.811Z,6.67
2022-09-24T23:25:06.098Z,6.67
2022-09-24T23:27:33.725Z,6.80
2022-09-24T23:30:01.430Z,6.47
2022-09-24T23:32:29.157Z,6.63
2022-09-24T23:34:58.155Z,6.67
2022-09-24T23:37:25.797Z,7.17
2022-09-24T23:39:53.397Z,7.00
2022-09-24T23:42:20.938Z,7.30
2022-09-24T23:44:49.326Z,6.30
2022-09-24T23:47:17.164Z,7.40
2022-09-24T23:49:44.686Z,6.90
2022-09-24T23:52:13.626Z,6.93
2022-09-24T23:54:41.198Z,7.00
2022-09-24T23:57:09.255Z,6.37
2022-09-24T23:59:36.864Z,7.10
